Time;durP1;ratioP1;P1;durP2;ratioP2;P2;SDS_P1;SDS_P2;PMS_P1;PMS_P2;Temp;Humidity;BMP_temperature;BMP_pressure;BME280_temperature;BME280_humidity;BME280_pressure;Samples;Min_cycle;Max_cycle;Signal;HPM_P1;HPM_P2
2021/12/23 00:00:05;;;;;;;37.42;21.73;;;-1.10;99.90;;;;;;5093827;28;20394;-72
2021/12/23 00:02:31;;;;;;;33.45;22.17;;;-1.10;99.90;;;;;;5076455;28;20402;-73
2021/12/23 00:04:57;;;;;;;34.60;20.33;;;-1.10;99.90;;;;;;5092920;28;20036;-72
2021/12/23 00:07:22;;;;;;;37.28;21.83;;;-1.10;99.90;;;;;;5110727;28;20470;-73
2021/12/23 00:12:14;;;;;;;32.67;20.15;;;-1.00;99.90;;;;;;5093730;28;20051;-72
2021/12/23 00:14:40;;;;;;;33.60;20.25;;;-1.00;99.90;;;;;;5076393;28;20466;-73
2021/12/23 00:17:19;;;;;;;38.03;21.52;;;-1.00;99.90;;;;;;5075983;28;20132;-73
2021/12/23 00:23:20;;;;;;;31.55;20.67;;;-1.00;99.90;;;;;;5093245;28;20371;-73
2021/12/23 00:25:19;;;;;;;35.20;21.45;;;-1.00;99.90;;;;;;5093012;28;20058;-73
2021/12/23 00:27:45;;;;;;;35.15;20.90;;;-1.00;99.90;;;;;;5090976;28;20106;-73
2021/12/23 00:30:11;;;;;;;35.90;21.55;;;-1.00;99.90;;;;;;5093175;28;20040;-73
2021/12/23 00:32:37;;;;;;;34.72;21.63;;;-1.00;99.90;;;;;;5076340;28;20082;-73
2021/12/23 00:35:04;;;;;;;38.55;23.58;;;-1.00;99.90;;;;;;5076177;28;20090;-74
2021/12/23 00:37:39;;;;;;;43.03;23.45;;;-1.00;99.90;;;;;;5075797;28;20394;-73
2021/12/23 00:40:07;;;;;;;39.40;24.02;;;-1.00;99.90;;;;;;5075802;28;20075;-72
2021/12/23 00:42:34;;;;;;;38.63;22.53;;;-1.00;99.90;;;;;;5093151;28;20048;-72
2021/12/23 00:45:00;;;;;;;40.28;22.48;;;-1.00;99.90;;;;;;5076028;28;20809;-75
2021/12/23 00:47:26;;;;;;;39.75;21.33;;;-1.00;99.90;;;;;;5092624;28;20402;-73
2021/12/23 00:49:51;;;;;;;35.45;21.55;;;-1.00;99.90;;;;;;5093744;28;20481;-72
2021/12/23 00:52:23;;;;;;;38.78;22.23;;;-1.00;99.90;;;;;;5075712;28;20048;-72
2021/12/23 00:54:49;;;;;;;37.65;22.15;;;-1.00;99.90;;;;;;5075329;28;20038;-72
2021/12/23 00:57:15;;;;;;;38.10;21.83;;;-0.90;99.90;;;;;;5092541;28;20036;-72
2021/12/23 00:59:41;;;;;;;35.50;22.05;;;-0.90;99.90;;;;;;5093192;28;20044;-74
2021/12/23 01:02:08;;;;;;;39.95;21.90;;;-0.90;99.90;;;;;;5075840;28;20541;-72
2021/12/23 01:04:34;;;;;;;33.75;21.83;;;-0.90;99.90;;;;;;5092164;28;20466;-74
2021/12/23 01:07:00;;;;;;;34.10;20.83;;;-0.90;99.90;;;;;;5075657;28;20085;-72
2021/12/23 01:09:26;;;;;;;37.47;22.02;;;-0.80;99.90;;;;;;5092100;28;20036;-72
2021/12/23 01:11:53;;;;;;;35.88;21.35;;;-0.80;99.90;;;;;;5093071;28;20032;-73
2021/12/23 01:16:50;;;;;;;34.90;21.25;;;-0.80;99.90;;;;;;5092430;28;20043;-73
2021/12/23 01:19:19;;;;;;;34.00;21.48;;;-0.90;99.90;;;;;;5092147;28;20044;-73
2021/12/23 01:21:45;;;;;;;36.45;20.83;;;-0.80;99.90;;;;;;5092227;28;20035;-72
2021/12/23 01:24:10;;;;;;;35.45;21.45;;;-0.80;99.90;;;;;;5074532;28;20068;-73
2021/12/23 01:26:38;;;;;;;37.00;21.13;;;-0.80;99.90;;;;;;5092679;28;20110;-74
2021/12/23 01:29:04;;;;;;;35.42;20.80;;;-0.80;99.90;;;;;;5092821;28;20040;-74
2021/12/23 01:31:32;;;;;;;33.65;20.13;;;-0.80;99.90;;;;;;5075663;28;20044;-72
2021/12/23 01:33:58;;;;;;;38.70;21.45;;;-0.80;99.90;;;;;;5092044;28;20040;-74
2021/12/23 01:36:25;;;;;;;32.65;19.73;;;-0.80;99.90;;;;;;5091826;28;20436;-73
2021/12/23 01:38:51;;;;;;;36.75;21.20;;;-0.70;99.90;;;;;;5075170;28;20048;-73
2021/12/23 01:41:17;;;;;;;39.38;20.70;;;-0.70;99.90;;;;;;5092432;28;20130;-73
2021/12/23 01:43:43;;;;;;;35.40;21.30;;;-0.70;99.90;;;;;;5074914;28;20478;-72
2021/12/23 01:46:09;;;;;;;36.60;21.73;;;-0.70;99.90;;;;;;5092042;28;20043;-72
2021/12/23 01:48:35;;;;;;;33.90;20.55;;;-0.70;99.90;;;;;;5092043;28;20035;-74
2021/12/23 01:51:01;;;;;;;36.78;21.17;;;-0.70;99.90;;;;;;5091787;28;20040;-73
2021/12/23 01:53:27;;;;;;;37.40;21.38;;;-0.70;99.90;;;;;;5092131;28;20463;-72
2021/12/23 01:55:53;;;;;;;35.90;21.05;;;-0.70;99.90;;;;;;5092370;28;20096;-72
2021/12/23 01:58:19;;;;;;;35.47;20.95;;;-0.70;99.90;;;;;;5092096;28;20509;-73
2021/12/23 02:00:48;;;;;;;35.30;21.05;;;-0.70;99.90;;;;;;5092387;28;20028;-73
2021/12/23 02:03:15;;;;;;;29.98;18.92;;;-0.60;99.90;;;;;;5091917;28;20169;-73
2021/12/23 02:05:42;;;;;;;34.45;20.13;;;-0.60;99.90;;;;;;5091688;28;20047;-75
2021/12/23 02:08:08;;;;;;;34.42;20.23;;;-0.60;99.90;;;;;;5092275;28;20044;-76
2021/12/23 02:10:34;;;;;;;34.00;20.83;;;-0.60;99.90;;;;;;5092191;28;20432;-72
2021/12/23 02:13:00;;;;;;;35.83;20.52;;;-0.60;99.90;;;;;;5092067;28;20422;-73
2021/12/23 02:15:26;;;;;;;37.35;20.90;;;-0.60;99.90;;;;;;5074017;28;20036;-72
2021/12/23 02:17:53;;;;;;;35.20;20.52;;;-0.60;99.90;;;;;;5090963;28;20044;-72
2021/12/23 02:20:21;;;;;;;32.80;19.70;;;-0.60;99.90;;;;;;5091282;28;20055;-73
2021/12/23 02:22:48;;;;;;;32.95;19.85;;;-0.60;99.90;;;;;;5095381;28;20470;-72
2021/12/23 02:25:14;;;;;;;31.38;19.70;;;-0.60;99.90;;;;;;5095652;28;20104;-72
2021/12/23 02:27:40;;;;;;;30.00;20.45;;;-0.60;99.90;;;;;;5078939;28;20086;-73
2021/12/23 02:30:16;;;;;;;33.70;20.25;;;-0.60;99.90;;;;;;5094299;28;20032;-72
2021/12/23 02:32:42;;;;;;;34.20;20.60;;;-0.60;99.90;;;;;;5095355;28;20069;-72
2021/12/23 02:35:12;;;;;;;39.88;20.90;;;-0.60;99.90;;;;;;5095350;28;20048;-74
2021/12/23 02:37:37;;;;;;;;;;;-0.60;99.90;;;;;;5096280;28;20036;-73
2021/12/23 02:40:04;;;;;;;32.58;19.73;;;-0.60;99.90;;;;;;5095444;28;20293;-73
2021/12/23 02:42:29;;;;;;;41.63;21.42;;;-0.60;99.90;;;;;;5095199;28;20123;-74
2021/12/23 02:44:55;;;;;;;35.35;20.60;;;-0.60;99.90;;;;;;5077789;28;20123;-73
2021/12/23 02:47:21;;;;;;;35.97;20.10;;;-0.60;99.90;;;;;;5077787;28;20032;-71
2021/12/23 02:49:46;;;;;;;33.97;19.63;;;-0.60;99.90;;;;;;5095060;28;20044;-75
2021/12/23 02:52:12;;;;;;;33.22;20.05;;;-0.60;99.90;;;;;;5078367;28;20032;-72
2021/12/23 02:54:38;;;;;;;33.00;20.80;;;-0.70;99.90;;;;;;5095127;28;20382;-73
2021/12/23 02:57:04;;;;;;;35.28;20.70;;;-0.70;99.90;;;;;;5077880;28;20098;-73
2021/12/23 02:59:30;;;;;;;36.17;21.00;;;-0.60;99.90;;;;;;5077823;28;20040;-72
2021/12/23 03:01:56;;;;;;;32.65;20.98;;;-0.60;99.90;;;;;;5094452;28;20036;-75
2021/12/23 03:04:22;;;;;;;35.58;20.20;;;-0.60;99.90;;;;;;5094702;28;20040;-71
2021/12/23 03:06:48;;;;;;;33.90;19.60;;;-0.60;99.90;;;;;;5095015;28;20052;-72
2021/12/23 03:09:13;;;;;;;34.40;19.33;;;-0.60;99.90;;;;;;5094846;28;20036;-73
2021/12/23 03:11:42;;;;;;;35.60;20.55;;;-0.60;99.90;;;;;;5094583;28;20048;-75
2021/12/23 03:14:10;;;;;;;36.20;20.67;;;-0.60;99.90;;;;;;5077229;28;20036;-73
2021/12/23 03:16:38;;;;;;;34.40;20.40;;;-0.60;99.90;;;;;;5077457;28;20047;-73
2021/12/23 03:19:05;;;;;;;32.17;19.98;;;-0.60;99.90;;;;;;5094639;28;20040;-71
2021/12/23 03:21:31;;;;;;;35.25;20.52;;;-0.60;99.90;;;;;;5094678;28;20048;-72
2021/12/23 03:23:57;;;;;;;36.70;20.10;;;-0.60;99.90;;;;;;5093750;28;20047;-75
2021/12/23 03:26:24;;;;;;;37.05;20.85;;;-0.60;99.90;;;;;;5094569;28;20123;-74
2021/12/23 03:28:50;;;;;;;37.72;20.42;;;-0.60;99.90;;;;;;5094046;28;20048;-75
2021/12/23 03:31:16;;;;;;;35.90;20.92;;;-0.60;99.90;;;;;;5127990;27;20036;-73
2021/12/23 03:33:42;;;;;;;37.70;21.38;;;-0.60;99.90;;;;;;5093866;28;20055;-71
2021/12/23 03:36:07;;;;;;;35.47;21.05;;;-0.60;99.90;;;;;;5077793;28;20473;-72
2021/12/23 03:38:33;;;;;;;36.58;19.48;;;-0.60;99.90;;;;;;5094246;28;20040;-75
2021/12/23 03:40:59;;;;;;;36.20;21.13;;;-0.60;99.90;;;;;;5094053;28;20053;-73
2021/12/23 03:43:28;;;;;;;36.70;20.20;;;-0.60;99.90;;;;;;5093470;28;20039;-74
2021/12/23 03:45:54;;;;;;;35.55;21.45;;;-0.60;99.90;;;;;;5093644;28;20126;-72
2021/12/23 03:48:20;;;;;;;35.67;20.40;;;-0.60;99.90;;;;;;5094492;28;20135;-72
2021/12/23 03:50:46;;;;;;;37.85;21.15;;;-0.60;99.90;;;;;;5093755;28;20044;-75
2021/12/23 03:53:12;;;;;;;32.42;19.98;;;-0.60;99.90;;;;;;5093989;28;20134;-75
2021/12/23 03:55:38;;;;;;;34.28;20.98;;;-0.60;99.90;;;;;;5093614;28;20109;-73
2021/12/23 03:58:04;;;;;;;33.78;21.38;;;-0.60;99.90;;;;;;5093788;28;20036;-72
2021/12/23 04:00:31;;;;;;;33.88;19.75;;;-0.60;99.90;;;;;;5093391;28;20113;-72
2021/12/23 04:02:56;;;;;;;35.15;20.85;;;-0.60;99.90;;;;;;5093505;28;20132;-74
2021/12/23 04:05:23;;;;;;;36.95;20.58;;;-0.60;99.90;;;;;;5092321;28;20124;-72
2021/12/23 04:07:49;;;;;;;33.25;20.77;;;-0.60;99.90;;;;;;5092860;28;20101;-73
2021/12/23 04:10:17;;;;;;;34.83;20.85;;;-0.60;99.90;;;;;;5093532;28;20036;-72
2021/12/23 04:12:45;;;;;;;32.65;19.95;;;-0.60;99.90;;;;;;5093189;28;20040;-73
2021/12/23 04:15:11;;;;;;;34.28;19.77;;;-0.60;99.90;;;;;;5093066;28;20048;-73
2021/12/23 04:17:37;;;;;;;31.20;18.90;;;-0.60;99.90;;;;;;5073407;28;20047;-73
2021/12/23 04:20:20;;;;;;;37.70;19.90;;;-0.50;99.90;;;;;;5076196;28;20051;-72
2021/12/23 04:22:49;;;;;;;33.97;19.80;;;-0.50;99.90;;;;;;5092976;28;20097;-72
2021/12/23 04:25:17;;;;;;;36.33;20.30;;;-0.50;99.90;;;;;;5093230;28;20044;-73
2021/12/23 04:27:44;;;;;;;33.72;18.98;;;-0.50;99.90;;;;;;5092718;28;20401;-72
2021/12/23 04:30:11;;;;;;;35.72;20.35;;;-0.60;99.90;;;;;;5076420;28;20054;-72
2021/12/23 04:32:37;;;;;;;33.25;20.00;;;-0.50;99.90;;;;;;5076424;28;20040;-73
2021/12/23 04:35:03;;;;;;;32.40;20.20;;;-0.50;99.90;;;;;;5092302;28;20040;-72
2021/12/23 04:37:29;;;;;;;34.47;19.33;;;-0.50;99.90;;;;;;5092958;28;20047;-72
2021/12/23 04:39:55;;;;;;;30.08;18.92;;;-0.50;99.90;;;;;;5075933;28;20040;-72
2021/12/23 04:42:20;;;;;;;29.77;17.83;;;-0.50;99.90;;;;;;5092517;28;20044;-70
2021/12/23 04:44:46;;;;;;;34.85;19.65;;;-0.50;99.90;;;;;;5075667;28;20036;-74
2021/12/23 04:47:12;;;;;;;29.10;17.73;;;-0.40;99.90;;;;;;5092785;28;20043;-72
2021/12/23 04:49:37;;;;;;;34.65;18.58;;;-0.40;99.90;;;;;;5093223;28;20039;-72
2021/12/23 04:52:03;;;;;;;30.30;18.35;;;-0.40;99.90;;;;;;5076134;28;20040;-72
2021/12/23 04:54:29;;;;;;;30.88;17.73;;;-0.40;99.90;;;;;;5092483;28;20036;-74
2021/12/23 04:56:54;;;;;;;32.25;19.63;;;-0.30;99.90;;;;;;5075581;28;20119;-75
2021/12/23 04:59:20;;;;;;;29.33;18.05;;;-0.30;99.90;;;;;;5075844;28;20394;-72
2021/12/23 05:01:47;;;;;;;30.10;17.85;;;-0.30;99.90;;;;;;5092466;28;20058;-73
2021/12/23 05:04:13;;;;;;;31.60;19.38;;;-0.30;99.90;;;;;;5092793;28;20039;-72
2021/12/23 05:06:39;;;;;;;31.38;19.23;;;-0.30;99.90;;;;;;5092512;28;20039;-72
2021/12/23 05:09:04;;;;;;;29.67;18.85;;;-0.30;99.90;;;;;;5092507;28;20040;-72
2021/12/23 05:11:30;;;;;;;30.40;18.88;;;-0.30;99.90;;;;;;5092269;28;20390;-73
2021/12/23 05:13:56;;;;;;;35.03;18.20;;;-0.20;99.90;;;;;;5092787;28;20047;-74
2021/12/23 05:16:21;;;;;;;31.33;18.40;;;-0.20;99.90;;;;;;5092662;28;20128;-72
2021/12/23 05:18:47;;;;;;;30.10;19.55;;;-0.20;99.90;;;;;;5092363;28;20359;-71
2021/12/23 05:21:13;;;;;;;29.95;18.55;;;-0.20;99.90;;;;;;5091996;28;20558;-72
2021/12/23 05:23:39;;;;;;;29.88;18.27;;;-0.20;99.90;;;;;;5075416;28;20134;-72
2021/12/23 05:26:06;;;;;;;33.83;19.23;;;-0.20;99.90;;;;;;5092035;28;20382;-71
2021/12/23 05:28:35;;;;;;;32.10;19.77;;;-0.20;99.90;;;;;;5092471;28;20386;-72
2021/12/23 05:31:03;;;;;;;33.13;19.42;;;-0.20;99.90;;;;;;5075289;28;20047;-72
2021/12/23 05:33:28;;;;;;;33.65;19.17;;;-0.20;99.90;;;;;;5092235;28;20040;-73
2021/12/23 05:35:55;;;;;;;31.40;19.25;;;-0.20;99.90;;;;;;5092315;28;20043;-72
2021/12/23 05:38:21;;;;;;;33.55;19.75;;;-0.20;99.90;;;;;;5091981;28;20482;-72
2021/12/23 05:40:47;;;;;;;36.38;20.42;;;-0.20;99.90;;;;;;5075287;28;20051;-73
2021/12/23 05:43:13;;;;;;;33.88;19.23;;;-0.20;99.90;;;;;;5092309;28;20043;-72
2021/12/23 05:45:38;;;;;;;31.75;18.85;;;-0.20;99.90;;;;;;5092737;28;20051;-72
2021/12/23 05:48:04;;;;;;;32.25;18.88;;;-0.20;99.90;;;;;;5109172;28;20043;-75
2021/12/23 05:50:30;;;;;;;35.38;20.20;;;-0.10;99.90;;;;;;5075484;28;20040;-72
2021/12/23 05:52:56;;;;;;;32.25;18.95;;;-0.10;99.90;;;;;;5074805;28;20072;-72
2021/12/23 05:55:22;;;;;;;35.15;19.98;;;-0.10;99.90;;;;;;5091109;28;20127;-73
2021/12/23 05:57:49;;;;;;;30.38;18.25;;;-0.10;99.90;;;;;;5095457;28;20058;-72
2021/12/23 06:00:20;;;;;;;31.52;18.58;;;-0.10;99.90;;;;;;5079020;28;20386;-72
2021/12/23 06:02:46;;;;;;;33.38;19.55;;;-0.10;99.90;;;;;;5096019;28;20086;-72
2021/12/23 06:05:12;;;;;;;30.80;19.08;;;-0.10;99.90;;;;;;5095815;28;20508;-72
2021/12/23 06:07:38;;;;;;;31.73;18.55;;;-0.10;99.90;;;;;;5095639;28;20048;-73
2021/12/23 06:10:04;;;;;;;29.48;18.25;;;-0.10;99.90;;;;;;5096600;28;20035;-72
2021/12/23 06:12:29;;;;;;;31.48;19.75;;;-0.10;99.90;;;;;;5095133;28;20486;-72
2021/12/23 06:14:55;;;;;;;32.28;18.30;;;-0.10;99.90;;;;;;5095872;28;20043;-72
2021/12/23 06:17:21;;;;;;;33.50;19.15;;;-0.10;99.90;;;;;;5095645;28;20047;-72
2021/12/23 06:19:47;;;;;;;35.72;19.58;;;-0.10;99.90;;;;;;5078351;28;20059;-72
2021/12/23 06:22:13;;;;;;;30.80;18.55;;;-0.10;99.90;;;;;;5079191;28;20051;-72
2021/12/23 06:24:43;;;;;;;34.85;19.88;;;-0.10;99.90;;;;;;5095022;28;20040;-71
2021/12/23 06:27:09;;;;;;;31.80;20.30;;;-0.10;99.90;;;;;;5095700;28;20081;-72
2021/12/23 06:29:34;;;;;;;32.05;19.45;;;-0.10;99.90;;;;;;5130077;27;20123;-72
2021/12/23 06:32:00;;;;;;;35.88;19.95;;;-0.10;99.90;;;;;;5095415;28;20237;-72
2021/12/23 06:34:26;;;;;;;34.17;19.80;;;-0.10;99.90;;;;;;5129406;27;20169;-72
2021/12/23 06:36:51;;;;;;;33.28;19.63;;;-0.10;99.90;;;;;;5095010;28;20078;-73
2021/12/23 06:39:17;;;;;;;38.60;22.05;;;-0.10;99.90;;;;;;5078468;28;20036;-72
2021/12/23 06:41:43;;;;;;;35.05;19.92;;;-0.10;99.90;;;;;;5095090;28;20040;-73
2021/12/23 06:44:09;;;;;;;35.08;21.17;;;-0.10;99.90;;;;;;5094426;28;20036;-76
2021/12/23 06:46:34;;;;;;;36.10;20.77;;;-0.10;99.90;;;;;;5078531;28;20043;-72
2021/12/23 06:49:00;;;;;;;39.85;20.48;;;-0.10;99.90;;;;;;5078313;28;20048;-72
2021/12/23 06:51:27;;;;;;;33.83;19.88;;;0.00;99.90;;;;;;5077453;28;20040;-74
2021/12/23 06:53:53;;;;;;;38.78;21.48;;;0.00;99.90;;;;;;5095073;28;20396;-76
2021/12/23 06:56:19;;;;;;;34.55;20.52;;;0.00;99.90;;;;;;5078041;28;20533;-73
2021/12/23 06:58:49;;;;;;;33.50;19.60;;;0.00;99.90;;;;;;5095320;28;20127;-72
2021/12/23 07:01:23;;;;;;;36.08;20.35;;;0.00;99.90;;;;;;5094989;28;20131;-73
2021/12/23 07:06:23;;;;;;;36.50;20.90;;;0.00;99.90;;;;;;5093856;28;20048;-73
2021/12/23 07:08:49;;;;;;;36.50;21.25;;;0.00;99.90;;;;;;5094364;28;20534;-73
2021/12/23 07:11:15;;;;;;;36.50;21.13;;;0.00;99.90;;;;;;5077809;28;20044;-72
2021/12/23 07:13:40;;;;;;;34.67;20.38;;;0.00;99.90;;;;;;5094480;28;20389;-73
2021/12/23 07:16:06;;;;;;;38.22;21.38;;;0.00;99.90;;;;;;5077643;28;20458;-73
2021/12/23 07:18:32;;;;;;;40.58;22.15;;;0.00;99.90;;;;;;5094073;28;20050;-76
2021/12/23 07:20:58;;;;;;;36.67;21.77;;;0.10;99.90;;;;;;5094296;28;20097;-73
2021/12/23 07:23:23;;;;;;;37.40;22.08;;;0.00;99.90;;;;;;5094923;28;20040;-72
2021/12/23 07:25:49;;;;;;;39.17;22.02;;;0.00;99.90;;;;;;5094560;28;20355;-73
2021/12/23 07:28:15;;;;;;;38.22;22.98;;;0.10;99.90;;;;;;5094574;28;20046;-73
2021/12/23 07:30:40;;;;;;;37.70;23.75;;;0.10;99.90;;;;;;5077418;28;20040;-73
2021/12/23 07:33:06;;;;;;;38.13;22.85;;;0.10;99.90;;;;;;5093831;28;20043;-72
2021/12/23 07:35:32;;;;;;;38.90;22.40;;;0.10;99.90;;;;;;5093897;28;20092;-73
2021/12/23 07:38:00;;;;;;;41.63;22.60;;;0.10;99.90;;;;;;5094826;28;20040;-73
2021/12/23 07:40:27;;;;;;;40.13;23.70;;;0.10;99.90;;;;;;5094345;28;20036;-74
2021/12/23 07:42:56;;;;;;;39.17;22.58;;;0.20;99.90;;;;;;5076835;28;20051;-73
2021/12/23 07:45:25;;;;;;;38.85;23.50;;;0.10;99.90;;;;;;5092954;28;20040;-72
2021/12/23 07:47:50;;;;;;;42.25;23.85;;;0.10;99.90;;;;;;5092929;28;20047;-73
2021/12/23 07:50:17;;;;;;;43.78;25.33;;;0.10;99.90;;;;;;5094495;28;20044;-73
2021/12/23 07:52:43;;;;;;;38.80;23.88;;;0.10;99.90;;;;;;5093961;28;20046;-73
2021/12/23 07:55:09;;;;;;;39.33;23.02;;;0.10;99.90;;;;;;5076564;28;20047;-76
2021/12/23 07:57:35;;;;;;;41.17;23.50;;;0.10;99.90;;;;;;5093773;28;20039;-76
2021/12/23 08:00:01;;;;;;;42.67;23.60;;;0.20;99.90;;;;;;5093677;28;20032;-75
2021/12/23 08:02:27;;;;;;;42.88;22.80;;;0.10;99.90;;;;;;5076498;28;20032;-73
2021/12/23 08:04:52;;;;;;;42.85;24.27;;;0.10;99.90;;;;;;5076465;28;20373;-72
2021/12/23 08:07:18;;;;;;;45.92;25.10;;;0.10;99.90;;;;;;5093821;28;20050;-73
2021/12/23 08:09:44;;;;;;;41.55;24.23;;;0.20;99.90;;;;;;5093912;28;20074;-72
2021/12/23 08:12:10;;;;;;;45.33;23.55;;;0.20;99.90;;;;;;5093459;28;20467;-71
2021/12/23 08:14:36;;;;;;;43.40;23.85;;;0.10;99.90;;;;;;5093546;28;20046;-73
2021/12/23 08:17:01;;;;;;;40.80;23.67;;;0.20;99.90;;;;;;5092982;28;20036;-73
2021/12/23 08:19:27;;;;;;;41.50;24.13;;;0.20;99.90;;;;;;5075862;28;20056;-73
2021/12/23 08:21:53;;;;;;;44.53;25.15;;;0.20;99.90;;;;;;5090270;28;20051;-73
2021/12/23 08:24:18;;;;;;;43.50;24.65;;;0.20;99.90;;;;;;5093084;28;20097;-72
2021/12/23 08:26:51;;;;;;;44.17;24.80;;;0.20;99.90;;;;;;5110181;28;20048;-72
2021/12/23 08:29:18;;;;;;;47.35;25.83;;;0.20;99.90;;;;;;5110192;28;20044;-73
2021/12/23 08:31:45;;;;;;;43.20;26.02;;;0.20;99.90;;;;;;5109777;28;20385;-72
2021/12/23 08:34:11;;;;;;;48.60;26.98;;;0.20;99.90;;;;;;5093311;28;20595;-72
2021/12/23 08:36:37;;;;;;;47.13;26.30;;;0.20;99.90;;;;;;5092716;28;20619;-75
2021/12/23 08:39:03;;;;;;;48.10;27.08;;;0.20;99.90;;;;;;5110409;28;20383;-73
2021/12/23 08:41:28;;;;;;;46.90;25.85;;;0.20;99.90;;;;;;5075599;28;20416;-73
2021/12/23 08:43:54;;;;;;;47.03;26.20;;;0.20;99.90;;;;;;5092833;28;20089;-73
2021/12/23 08:46:20;;;;;;;47.22;25.98;;;0.20;99.90;;;;;;5092536;28;20161;-73
2021/12/23 08:48:46;;;;;;;50.65;27.98;;;0.20;99.90;;;;;;5075735;28;20057;-75
2021/12/23 08:51:12;;;;;;;52.83;28.92;;;0.20;99.90;;;;;;5093185;28;20051;-76
2021/12/23 08:53:38;;;;;;;49.00;27.30;;;0.20;99.90;;;;;;5075979;28;20112;-73
2021/12/23 08:56:07;;;;;;;56.33;28.90;;;0.20;99.90;;;;;;5092905;28;20044;-72
2021/12/23 08:58:34;;;;;;;;;;;0.20;99.90;;;;;;5076173;28;20131;-72
2021/12/23 09:01:00;;;;;;;52.35;27.83;;;0.20;99.90;;;;;;5075589;28;19920;-73
2021/12/23 09:03:26;;;;;;;50.50;28.67;;;0.20;99.90;;;;;;5092572;28;20430;-73
2021/12/23 09:05:52;;;;;;;49.58;27.92;;;0.20;99.90;;;;;;5091823;28;20565;-73
2021/12/23 09:08:17;;;;;;;50.72;27.52;;;0.20;99.90;;;;;;5075835;28;20093;-72
2021/12/23 09:10:43;;;;;;;58.00;29.42;;;0.20;99.90;;;;;;5092476;28;20040;-72
2021/12/23 09:13:09;;;;;;;52.05;28.77;;;0.20;99.90;;;;;;5092577;28;20477;-71
2021/12/23 09:15:34;;;;;;;52.83;29.15;;;0.20;99.90;;;;;;5092156;28;20036;-72
2021/12/23 09:18:00;;;;;;;57.60;29.70;;;0.20;99.90;;;;;;5109952;28;20044;-73
2021/12/23 09:20:26;;;;;;;55.15;29.10;;;0.20;99.90;;;;;;5092591;28;20044;-72
2021/12/23 09:22:52;;;;;;;57.35;29.40;;;0.20;99.90;;;;;;5092146;28;20467;-72
2021/12/23 09:25:29;;;;;;;54.17;29.10;;;0.30;99.90;;;;;;5092422;28;20039;-75
2021/12/23 09:33:05;;;;;;;58.15;29.75;;;0.20;99.90;;;;;;5096392;28;20090;-72
2021/12/23 09:35:32;;;;;;;59.42;32.10;;;0.20;99.90;;;;;;5095864;28;20119;-72
2021/12/23 09:37:59;;;;;;;56.22;28.23;;;0.30;99.90;;;;;;5096117;28;20043;-73
2021/12/23 09:40:29;;;;;;;59.97;30.52;;;0.20;99.90;;;;;;5079276;28;20040;-72
2021/12/23 09:43:04;;;;;;;57.65;29.58;;;0.30;99.90;;;;;;5097135;28;20040;-75
2021/12/23 09:45:31;;;;;;;58.40;31.15;;;0.30;99.90;;;;;;5079517;28;20096;-73
2021/12/23 09:47:58;;;;;;;64.03;33.20;;;0.30;99.90;;;;;;5079347;28;20044;-75
2021/12/23 09:50:26;;;;;;;63.30;31.83;;;0.30;99.90;;;;;;5079220;28;20475;-72
2021/12/23 09:52:53;;;;;;;58.60;30.67;;;0.30;99.90;;;;;;5079101;28;20140;-73
2021/12/23 09:55:23;;;;;;;59.08;30.48;;;0.30;99.90;;;;;;5079067;28;20044;-72
2021/12/23 09:57:50;;;;;;;61.00;29.98;;;0.30;99.90;;;;;;5079165;28;20039;-74
2021/12/23 10:00:19;;;;;;;61.95;32.28;;;0.30;99.90;;;;;;5094886;28;20072;-73
2021/12/23 10:02:45;;;;;;;63.00;30.63;;;0.40;99.90;;;;;;5096028;28;20036;-73
2021/12/23 10:05:14;;;;;;;63.80;31.90;;;0.30;99.90;;;;;;5096000;28;20044;-71
2021/12/23 10:07:41;;;;;;;62.90;31.63;;;0.40;99.90;;;;;;5095132;28;20039;-72
2021/12/23 10:10:16;;;;;;;61.90;32.00;;;0.40;99.90;;;;;;5096137;28;20123;-72
2021/12/23 10:27:06;;;;;;;65.28;32.58;;;0.40;99.90;;;;;;5094869;28;20450;-71
2021/12/23 10:33:12;;;;;;;64.53;32.75;;;0.50;99.90;;;;;;5095044;28;20625;-72
2021/12/23 10:38:31;;;;;;;64.07;32.13;;;0.50;99.90;;;;;;5095138;28;20544;-72
2021/12/23 10:41:32;;;;;;;71.22;34.42;;;0.50;99.90;;;;;;5094576;28;20482;-72
2021/12/23 10:44:01;;;;;;;66.85;34.47;;;0.50;99.90;;;;;;5090411;28;20170;-72
2021/12/23 10:46:35;;;;;;;75.70;35.17;;;0.50;99.90;;;;;;5094962;28;20529;-74
2021/12/23 10:52:16;;;;;;;68.78;34.50;;;0.50;99.90;;;;;;5094745;28;20048;-71
2021/12/23 11:00:19;;;;;;;73.57;33.35;;;0.60;99.90;;;;;;5095070;28;20131;-72
2021/12/23 11:03:25;;;;;;;69.82;34.30;;;0.60;99.90;;;;;;5078367;28;20040;-72
2021/12/23 11:06:11;;;;;;;74.55;35.47;;;0.50;99.90;;;;;;5077899;28;20083;-71
2021/12/23 11:43:51;;;;;;;74.22;36.70;;;0.70;99.90;;;;;;5093158;28;20135;-71
2021/12/23 11:46:27;;;;;;;82.30;37.22;;;0.70;99.90;;;;;;5076074;28;20032;-70
2021/12/23 11:48:55;;;;;;;83.55;37.15;;;0.70;99.90;;;;;;5093192;28;20048;-71
2021/12/23 11:51:32;;;;;;;78.53;37.33;;;0.70;99.90;;;;;;5094306;28;20044;-71
2021/12/23 11:54:01;;;;;;;80.75;36.40;;;0.70;99.90;;;;;;5092904;28;20035;-71
2021/12/23 11:56:28;;;;;;;77.47;36.95;;;0.70;99.90;;;;;;5076946;28;20052;-71
2021/12/23 11:58:58;;;;;;;81.05;36.25;;;0.70;99.90;;;;;;5093484;28;20042;-74
2021/12/23 12:01:28;;;;;;;78.13;36.30;;;0.70;99.90;;;;;;5093968;28;20086;-74
2021/12/23 12:03:57;;;;;;;81.50;36.58;;;0.70;99.90;;;;;;5093689;28;20036;-74
2021/12/23 12:06:28;;;;;;;78.93;38.20;;;0.70;99.90;;;;;;5093775;28;20040;-71
2021/12/23 12:09:07;;;;;;;84.53;38.40;;;0.70;99.90;;;;;;5093669;28;20382;-72
2021/12/23 12:11:33;;;;;;;80.75;37.35;;;0.80;99.90;;;;;;5093181;28;20101;-72
2021/12/23 12:13:59;;;;;;;72.93;34.05;;;0.80;99.90;;;;;;5094102;28;20472;-73
2021/12/23 12:16:33;;;;;;;75.38;35.88;;;0.80;99.90;;;;;;5093450;28;20075;-72
2021/12/23 12:19:01;;;;;;;75.15;34.85;;;0.80;99.90;;;;;;5092846;28;20044;-72
2021/12/23 12:21:33;;;;;;;73.82;36.65;;;0.80;99.90;;;;;;5093045;28;20117;-72
2021/12/23 12:24:08;;;;;;;73.03;33.78;;;0.80;99.90;;;;;;5075689;28;20040;-73
2021/12/23 12:26:37;;;;;;;74.30;35.67;;;0.80;99.90;;;;;;5076367;28;20500;-71
2021/12/23 12:29:08;;;;;;;75.15;36.13;;;0.80;99.90;;;;;;5076398;28;20040;-74
2021/12/23 12:31:41;;;;;;;78.20;37.03;;;0.80;99.90;;;;;;5093151;28;20482;-71
2021/12/23 12:34:08;;;;;;;77.80;36.08;;;0.80;99.90;;;;;;5093087;28;20040;-71
2021/12/23 12:36:45;;;;;;;76.65;36.88;;;0.80;99.90;;;;;;5092727;28;20086;-73
2021/12/23 12:39:17;;;;;;;72.95;34.90;;;0.80;99.90;;;;;;5093251;28;20040;-72
2021/12/23 12:41:43;;;;;;;76.93;35.90;;;0.90;99.90;;;;;;5093183;28;20131;-71
2021/12/23 12:47:02;;;;;;;80.70;36.33;;;0.90;99.90;;;;;;5092772;28;20074;-72
2021/12/23 12:49:33;;;;;;;66.72;34.05;;;0.90;99.90;;;;;;5093038;28;20038;-70
2021/12/23 12:52:14;;;;;;;71.03;34.70;;;0.90;99.90;;;;;;5093119;28;20044;-72
2021/12/23 12:54:44;;;;;;;76.13;35.90;;;0.90;99.90;;;;;;5092644;28;20468;-72
2021/12/23 12:57:11;;;;;;;72.75;34.88;;;0.90;99.90;;;;;;5092764;28;20042;-71
2021/12/23 12:59:43;;;;;;;71.18;35.08;;;0.90;99.90;;;;;;5075584;28;20414;-72
2021/12/23 13:02:32;;;;;;;79.53;35.53;;;0.90;99.90;;;;;;5075940;28;20280;-73
2021/12/23 13:05:03;;;;;;;73.80;35.25;;;0.90;99.90;;;;;;5091825;28;20032;-73
2021/12/23 13:07:38;;;;;;;71.78;35.35;;;0.90;99.90;;;;;;5092758;28;20039;-71
2021/12/23 13:10:16;;;;;;;69.60;33.63;;;0.90;99.90;;;;;;5092368;28;20449;-71
2021/12/23 13:12:55;;;;;;;74.05;35.30;;;0.90;99.90;;;;;;5091849;28;20051;-74
2021/12/23 13:15:24;;;;;;;76.22;35.78;;;0.90;99.90;;;;;;5092561;28;20032;-72
2021/12/23 13:17:55;;;;;;;68.93;34.20;;;0.90;99.90;;;;;;5092524;28;20055;-71
2021/12/23 13:20:40;;;;;;;75.72;37.03;;;0.90;99.90;;;;;;5091959;28;20044;-72
2021/12/23 13:23:32;;;;;;;76.88;35.78;;;0.90;99.90;;;;;;5092449;28;20466;-73
2021/12/23 13:26:01;;;;;;;75.95;34.70;;;0.90;99.90;;;;;;5075516;28;20040;-71
2021/12/23 13:28:38;;;;;;;73.43;34.08;;;0.90;99.90;;;;;;5092491;28;20173;-74
2021/12/23 13:31:13;;;;;;;75.05;34.97;;;0.90;99.90;;;;;;5092761;28;20036;-72
2021/12/23 13:34:06;;;;;;;70.78;34.72;;;1.00;99.90;;;;;;5092608;28;20083;-74
2021/12/23 13:36:33;;;;;;;69.72;34.35;;;1.00;99.90;;;;;;5083625;28;20052;-73
2021/12/23 13:39:18;;;;;;;70.40;33.83;;;1.00;99.90;;;;;;5092061;28;20040;-72
2021/12/23 13:41:53;;;;;;;67.15;32.88;;;0.90;99.90;;;;;;5091156;28;20081;-71
2021/12/23 13:44:33;;;;;;;68.75;32.15;;;1.00;99.90;;;;;;5091820;28;20043;-72
2021/12/23 13:47:06;;;;;;;73.32;34.63;;;1.00;99.90;;;;;;5075480;28;20048;-72
2021/12/23 13:49:34;;;;;;;73.55;33.60;;;1.00;99.90;;;;;;5091007;28;20123;-72
2021/12/23 13:52:00;;;;;;;69.57;34.22;;;1.00;99.90;;;;;;5092026;28;20039;-71
2021/12/23 13:54:36;;;;;;;73.40;33.75;;;1.00;99.90;;;;;;5092763;28;20043;-72
2021/12/23 13:57:08;;;;;;;70.05;33.55;;;1.00;99.90;;;;;;5092499;28;20047;-72
2021/12/23 13:59:33;;;;;;;74.63;34.85;;;1.00;99.90;;;;;;5092036;28;20525;-71